Time;durP1;ratioP1;P1;durP2;ratioP2;P2;SDS_P1;SDS_P2;PMS_P1;PMS_P2;Temp;Humidity;BMP_temperature;BMP_pressure;BME280_temperature;BME280_humidity;BME280_pressure;Samples;Min_cycle;Max_cycle;Signal;HPM_P1;HPM_P2
2021/01/29 00:00:38;;;;;;;0.10;0.10;;;13.00;99.90;;;;;;5068976;28;20755;-91
2021/01/29 00:03:07;;;;;;;0.10;0.10;;;13.00;99.90;;;;;;5050303;28;20111;-91
2021/01/29 00:05:39;;;;;;;1.05;1.02;;;13.00;99.90;;;;;;5068634;28;20039;-91
2021/01/29 00:08:06;;;;;;;0.10;0.10;;;13.00;99.90;;;;;;5067435;28;20032;-91
2021/01/29 00:10:33;;;;;;;0.20;0.20;;;13.00;99.90;;;;;;5050972;28;20593;-91
2021/01/29 00:13:01;;;;;;;0.25;0.25;;;13.00;99.90;;;;;;5050438;28;20035;-91
2021/01/29 00:15:32;;;;;;;0.10;0.10;;;13.00;99.90;;;;;;5079895;28;20029;-91
2021/01/29 00:18:01;;;;;;;0.15;0.15;;;13.00;99.90;;;;;;5068175;28;20066;-91
2021/01/29 00:20:29;;;;;;;0.10;0.10;;;13.00;99.90;;;;;;5050532;28;20045;-91
2021/01/29 00:22:56;;;;;;;3.65;0.55;;;13.00;99.90;;;;;;5050014;28;20111;-90
2021/01/29 00:25:35;;;;;;;0.10;0.10;;;13.10;99.90;;;;;;5067711;28;20482;-90
2021/01/29 00:28:01;;;;;;;0.20;0.20;;;13.10;99.90;;;;;;5050889;28;20024;-90
2021/01/29 00:30:29;;;;;;;2.08;1.55;;;13.10;99.90;;;;;;5068641;28;20494;-91
2021/01/29 00:32:55;;;;;;;0.10;0.10;;;13.10;99.90;;;;;;5068717;28;20082;-90
2021/01/29 00:35:24;;;;;;;0.27;0.27;;;13.10;99.90;;;;;;5067703;28;20032;-91
2021/01/29 00:37:49;;;;;;;0.28;0.28;;;13.10;99.90;;;;;;5070203;28;20048;-90
2021/01/29 00:40:16;;;;;;;0.40;0.40;;;13.20;99.90;;;;;;5054243;28;20057;-91
2021/01/29 00:42:43;;;;;;;;;;;13.20;99.90;;;;;;5073335;28;20025;-90
2021/01/29 00:45:11;;;;;;;;;;;13.20;99.90;;;;;;5053852;28;20798;-90
2021/01/29 00:47:38;;;;;;;0.40;0.40;;;13.20;99.90;;;;;;5069940;28;19908;-90
2021/01/29 00:50:06;;;;;;;0.10;0.10;;;13.20;99.90;;;;;;5053769;28;20374;-91
2021/01/29 00:52:32;;;;;;;0.10;0.10;;;13.20;99.90;;;;;;5071691;28;20370;-90
2021/01/29 00:54:57;;;;;;;0.28;0.25;;;13.30;99.90;;;;;;5054177;28;20036;-91
2021/01/29 00:57:23;;;;;;;2.00;0.85;;;13.30;99.90;;;;;;5046810;28;20096;-91
2021/01/29 00:59:49;;;;;;;0.25;0.15;;;13.20;99.90;;;;;;5058208;28;20104;-91
2021/01/29 01:02:15;;;;;;;1.40;0.20;;;13.30;99.90;;;;;;5075382;28;20029;-91
2021/01/29 01:04:41;;;;;;;0.35;0.15;;;13.30;99.90;;;;;;5072436;28;20055;-90
2021/01/29 01:07:07;;;;;;;0.25;0.25;;;13.20;99.90;;;;;;5072125;28;20105;-90
2021/01/29 01:09:33;;;;;;;0.10;0.10;;;13.30;99.90;;;;;;5053902;28;20040;-90
2021/01/29 01:12:00;;;;;;;0.10;0.10;;;13.30;99.90;;;;;;5074159;28;20044;-91
2021/01/29 01:14:28;;;;;;;1.08;0.47;;;13.30;99.90;;;;;;5071190;28;20052;-91
2021/01/29 01:16:56;;;;;;;0.10;0.10;;;13.30;99.90;;;;;;5067854;28;20524;-91
2021/01/29 01:19:25;;;;;;;0.30;0.30;;;13.30;99.90;;;;;;5061120;28;20072;-91
2021/01/29 01:21:56;;;;;;;0.38;0.28;;;13.20;99.90;;;;;;5060265;28;20027;-90
2021/01/29 01:24:21;;;;;;;0.32;0.32;;;13.20;99.90;;;;;;5071057;28;20043;-91
2021/01/29 01:26:47;;;;;;;0.10;0.10;;;13.30;99.90;;;;;;5053542;28;20024;-92
2021/01/29 01:29:13;;;;;;;0.32;0.22;;;13.30;99.90;;;;;;5053440;28;20033;-91
2021/01/29 01:31:39;;;;;;;2.77;2.10;;;13.30;99.90;;;;;;5071722;28;20051;-91
2021/01/29 01:34:04;;;;;;;2.95;1.80;;;13.30;99.90;;;;;;5053331;28;20085;-90
2021/01/29 01:36:30;;;;;;;0.40;0.40;;;13.30;99.90;;;;;;5062022;28;20024;-91
2021/01/29 01:38:56;;;;;;;0.13;0.13;;;13.30;99.90;;;;;;5072299;28;20042;-90
2021/01/29 01:41:23;;;;;;;1.60;1.13;;;13.30;99.90;;;;;;5053139;28;20108;-91
2021/01/29 01:43:51;;;;;;;5.80;2.47;;;13.30;99.90;;;;;;5053000;28;20464;-92
2021/01/29 01:46:19;;;;;;;0.20;0.20;;;13.30;99.90;;;;;;5053460;28;20028;-91
2021/01/29 01:49:01;;;;;;;0.45;0.32;;;13.30;99.90;;;;;;5051188;28;20449;-91
2021/01/29 01:51:38;;;;;;;4.10;0.35;;;13.30;99.90;;;;;;5043703;28;20025;-90
2021/01/29 01:54:16;;;;;;;1.45;1.23;;;13.30;99.90;;;;;;5070522;28;20039;-90
2021/01/29 01:56:49;;;;;;;19.75;2.75;;;13.30;99.90;;;;;;5050995;28;20025;-90
2021/01/29 01:59:21;;;;;;;0.32;0.32;;;13.30;99.90;;;;;;5042649;28;20054;-90
2021/01/29 02:01:50;;;;;;;0.50;0.50;;;13.20;99.90;;;;;;5071106;28;20021;-90
2021/01/29 02:04:16;;;;;;;4.38;2.20;;;13.30;99.90;;;;;;5071030;28;20024;-91
2021/01/29 02:07:11;;;;;;;0.45;0.43;;;13.30;99.90;;;;;;5070897;28;20029;-91
2021/01/29 02:09:40;;;;;;;0.20;0.20;;;13.30;99.90;;;;;;5059860;28;20032;-91
2021/01/29 02:12:07;;;;;;;0.10;0.10;;;13.30;99.90;;;;;;5069981;28;20031;-91
2021/01/29 02:14:38;;;;;;;0.20;0.20;;;13.30;99.90;;;;;;5052682;28;20028;-90
2021/01/29 02:17:42;;;;;;;2.10;1.65;;;13.30;99.90;;;;;;5060127;28;20103;-90
2021/01/29 02:20:22;;;;;;;2.13;1.27;;;13.30;99.90;;;;;;5069972;28;20186;-90
2021/01/29 02:23:09;;;;;;;0.35;0.22;;;13.30;99.90;;;;;;5070673;28;20032;-90
2021/01/29 02:25:50;;;;;;;6.40;0.73;;;13.30;99.90;;;;;;5070121;28;20032;-90
2021/01/29 02:28:47;;;;;;;0.43;0.43;;;13.30;99.90;;;;;;5070215;28;20068;-90
2021/01/29 02:31:16;;;;;;;0.30;0.30;;;13.30;99.90;;;;;;5052392;28;20115;-91
2021/01/29 02:34:23;;;;;;;0.10;0.10;;;13.30;99.90;;;;;;5068884;28;20033;-91
2021/01/29 02:37:35;;;;;;;0.10;0.10;;;13.30;99.90;;;;;;5067931;28;20105;-91
2021/01/29 02:40:39;;;;;;;0.13;0.13;;;13.30;99.90;;;;;;5069519;28;20039;-91
2021/01/29 02:43:38;;;;;;;0.35;0.35;;;13.30;99.90;;;;;;5061476;28;20060;-91
2021/01/29 02:46:26;;;;;;;0.20;0.20;;;13.30;99.90;;;;;;5078139;28;20025;-90
2021/01/29 02:49:13;;;;;;;0.10;0.10;;;13.30;99.90;;;;;;5043517;28;20032;-91
2021/01/29 02:51:54;;;;;;;0.10;0.10;;;13.30;99.90;;;;;;5062843;28;20028;-91
2021/01/29 02:54:38;;;;;;;0.10;0.10;;;13.30;99.90;;;;;;5051199;28;20131;-91
2021/01/29 02:57:20;;;;;;;0.10;0.10;;;13.30;99.90;;;;;;5069995;28;20469;-91
2021/01/29 02:59:55;;;;;;;0.15;0.15;;;13.30;99.90;;;;;;5066266;28;20410;-90
2021/01/29 03:02:32;;;;;;;0.10;0.10;;;13.40;99.90;;;;;;5068657;28;20904;-91
2021/01/29 03:05:11;;;;;;;0.20;0.20;;;13.30;99.90;;;;;;5051080;28;20456;-91
2021/01/29 03:07:44;;;;;;;0.70;0.70;;;13.30;99.90;;;;;;5069949;28;20028;-91
2021/01/29 03:10:20;;;;;;;0.10;0.10;;;13.30;99.90;;;;;;5068830;28;20060;-90
2021/01/29 03:12:53;;;;;;;0.17;0.17;;;13.30;99.90;;;;;;5069439;28;20020;-92
2021/01/29 03:15:38;;;;;;;0.43;0.43;;;13.30;99.90;;;;;;5045996;28;20029;-91
2021/01/29 03:18:23;;;;;;;0.73;0.73;;;13.30;99.90;;;;;;5065352;28;20044;-91
2021/01/29 03:21:07;;;;;;;0.10;0.10;;;13.20;99.90;;;;;;5069399;28;20045;-91
2021/01/29 03:23:39;;;;;;;0.10;0.10;;;13.20;99.90;;;;;;5050819;28;20021;-91
2021/01/29 03:26:21;;;;;;;0.10;0.10;;;13.20;99.90;;;;;;5069845;28;20064;-91
2021/01/29 03:28:54;;;;;;;0.10;0.10;;;13.30;99.90;;;;;;5068941;28;20048;-91
2021/01/29 03:31:22;;;;;;;0.10;0.10;;;13.30;99.90;;;;;;5069342;28;20036;-90
2021/01/29 03:34:02;;;;;;;0.10;0.10;;;13.30;99.90;;;;;;5050518;28;20074;-91
2021/01/29 03:36:33;;;;;;;0.30;0.30;;;13.30;99.90;;;;;;5050871;28;20068;-91
2021/01/29 03:39:07;;;;;;;0.30;0.30;;;13.30;99.90;;;;;;5050745;28;20055;-91
2021/01/29 03:41:38;;;;;;;2.05;1.08;;;13.30;99.90;;;;;;5050793;28;20075;-91
2021/01/29 03:44:46;;;;;;;0.38;0.38;;;13.30;99.90;;;;;;5069595;28;20750;-91
2021/01/29 03:47:42;;;;;;;0.10;0.10;;;13.30;99.90;;;;;;5050969;28;20020;-91
2021/01/29 03:50:20;;;;;;;0.38;0.22;;;13.30;99.90;;;;;;5057592;28;20021;-90
2021/01/29 03:52:59;;;;;;;0.85;0.45;;;13.20;99.90;;;;;;5069003;28;20027;-90
2021/01/29 03:55:46;;;;;;;0.10;0.10;;;13.20;99.90;;;;;;5068814;28;20418;-91
2021/01/29 03:58:27;;;;;;;0.10;0.10;;;13.20;99.90;;;;;;5051211;28;20021;-90
2021/01/29 04:01:00;;;;;;;0.10;0.10;;;13.20;99.90;;;;;;5049981;28;20482;-91
2021/01/29 04:03:43;;;;;;;0.35;0.32;;;13.30;99.90;;;;;;5068771;28;20011;-91
2021/01/29 04:06:23;;;;;;;0.30;0.30;;;13.20;99.90;;;;;;5068939;28;20028;-91
2021/01/29 04:09:03;;;;;;;0.20;0.20;;;13.20;99.90;;;;;;5068676;28;20020;-91
2021/01/29 04:11:46;;;;;;;0.20;0.20;;;13.20;99.90;;;;;;5068648;28;20777;-91
2021/01/29 04:14:18;;;;;;;0.10;0.10;;;13.20;99.90;;;;;;5068574;28;20498;-91
2021/01/29 04:16:47;;;;;;;0.10;0.10;;;13.10;99.90;;;;;;5068887;28;20158;-91
2021/01/29 04:19:24;;;;;;;0.10;0.10;;;13.20;99.90;;;;;;5050529;28;20047;-91
2021/01/29 04:22:07;;;;;;;0.10;0.10;;;13.20;99.90;;;;;;5066016;28;20024;-90
2021/01/29 04:24:47;;;;;;;0.10;0.10;;;13.20;99.90;;;;;;5050651;28;20449;-91
2021/01/29 04:27:32;;;;;;;0.10;0.10;;;13.20;99.90;;;;;;5069790;28;20868;-90
2021/01/29 04:30:06;;;;;;;3.00;1.20;;;13.10;99.90;;;;;;5068046;28;20081;-91
2021/01/29 04:32:43;;;;;;;0.10;0.10;;;13.10;99.90;;;;;;5049711;28;20036;-90
2021/01/29 04:35:10;;;;;;;;;;;13.20;99.90;;;;;;5069152;28;20025;-91
2021/01/29 04:37:38;;;;;;;;;;;13.20;99.90;;;;;;5051087;28;19911;-91
2021/01/29 04:40:27;;;;;;;0.10;0.10;;;13.10;99.90;;;;;;5067767;28;20246;-91
2021/01/29 04:43:08;;;;;;;0.10;0.10;;;13.10;99.90;;;;;;5050354;28;20025;-91
2021/01/29 04:46:04;;;;;;;0.10;0.10;;;13.10;99.90;;;;;;5068530;28;20025;-91
2021/01/29 04:48:41;;;;;;;0.10;0.10;;;13.10;99.90;;;;;;5049424;28;20085;-91
2021/01/29 04:51:40;;;;;;;0.17;0.17;;;13.10;99.90;;;;;;5043246;28;20052;-91
2021/01/29 04:54:38;;;;;;;0.10;0.10;;;13.10;99.90;;;;;;5049646;28;20145;-91
2021/01/29 04:57:22;;;;;;;0.10;0.10;;;13.10;99.90;;;;;;5039766;28;20104;-91
2021/01/29 05:00:14;;;;;;;0.10;0.10;;;13.10;99.90;;;;;;5061061;28;21439;-90
2021/01/29 05:03:08;;;;;;;0.10;0.10;;;13.10;99.90;;;;;;5068521;28;20074;-91
2021/01/29 05:05:55;;;;;;;0.10;0.10;;;13.10;99.90;;;;;;5043133;28;20040;-92
2021/01/29 05:08:32;;;;;;;0.10;0.10;;;13.10;99.90;;;;;;5063510;28;20032;-91
2021/01/29 05:11:17;;;;;;;0.10;0.10;;;13.10;99.90;;;;;;5065910;28;20524;-91
2021/01/29 05:14:27;;;;;;;0.10;0.10;;;13.10;99.90;;;;;;5068245;28;20020;-92
2021/01/29 05:17:23;;;;;;;0.10;0.10;;;13.10;99.90;;;;;;5055266;28;20025;-91
2021/01/29 05:20:30;;;;;;;0.10;0.10;;;13.10;99.90;;;;;;5048255;28;20052;-91
2021/01/29 05:22:59;;;;;;;0.10;0.10;;;13.10;99.90;;;;;;5074370;28;20060;-92
2021/01/29 05:25:44;;;;;;;0.10;0.10;;;13.00;99.90;;;;;;5071344;28;20086;-91
2021/01/29 05:28:38;;;;;;;0.10;0.10;;;12.90;99.90;;;;;;5053100;28;20094;-89
2021/01/29 05:31:33;;;;;;;0.10;0.10;;;12.80;99.90;;;;;;5071196;28;20054;-90
2021/01/29 05:34:20;;;;;;;0.10;0.10;;;12.70;99.90;;;;;;5053176;28;20043;-90
2021/01/29 05:37:21;;;;;;;0.10;0.10;;;12.60;99.90;;;;;;5062079;28;20062;-90
2021/01/29 05:40:14;;;;;;;0.10;0.10;;;12.30;99.90;;;;;;5042098;28;20406;-92
2021/01/29 05:43:04;;;;;;;0.10;0.10;;;12.10;99.90;;;;;;5050798;28;20035;-91
2021/01/29 05:46:12;;;;;;;0.10;0.10;;;12.10;99.90;;;;;;5046451;28;20630;-89
2021/01/29 05:48:50;;;;;;;0.10;0.10;;;12.10;99.90;;;;;;5061371;28;20042;-88
2021/01/29 05:51:35;;;;;;;0.10;0.10;;;12.10;99.90;;;;;;5070037;28;20374;-89
2021/01/29 05:54:23;;;;;;;0.10;0.10;;;12.10;99.90;;;;;;5052418;28;20020;-89
2021/01/29 05:57:05;;;;;;;0.10;0.10;;;12.10;99.90;;;;;;5045343;28;20039;-88
2021/01/29 05:59:58;;;;;;;0.10;0.10;;;12.00;99.90;;;;;;5070172;28;20463;-89
2021/01/29 06:02:45;;;;;;;0.10;0.10;;;11.90;99.90;;;;;;5051879;28;20042;-89
2021/01/29 06:05:43;;;;;;;1.27;0.47;;;11.80;99.90;;;;;;5068074;28;20196;-90
2021/01/29 06:08:24;;;;;;;0.10;0.10;;;11.60;99.90;;;;;;5049634;28;20040;-89
2021/01/29 06:11:22;;;;;;;4.72;0.75;;;11.60;99.90;;;;;;5051940;28;20730;-90
2021/01/29 06:14:12;;;;;;;2.15;1.77;;;11.60;99.90;;;;;;4969028;28;20074;-90
2021/01/29 06:16:56;;;;;;;0.30;0.30;;;11.70;99.90;;;;;;4952350;28;20066;-90
2021/01/29 06:19:49;;;;;;;4.47;0.65;;;11.80;99.90;;;;;;4970278;28;20501;-90
2021/01/29 06:22:22;;;;;;;0.25;0.25;;;11.90;99.90;;;;;;4969207;28;20035;-90
2021/01/29 06:25:32;;;;;;;0.10;0.10;;;11.80;99.90;;;;;;4985331;28;20045;-91
2021/01/29 06:28:22;;;;;;;0.30;0.30;;;11.80;99.90;;;;;;4893015;29;20033;-92
2021/01/29 06:31:25;;;;;;;0.10;0.10;;;11.70;99.90;;;;;;4908092;29;20036;-91
2021/01/29 06:34:04;;;;;;;0.10;0.10;;;11.70;99.90;;;;;;4892922;29;20039;-91
2021/01/29 06:37:14;;;;;;;2.28;1.35;;;11.70;99.90;;;;;;4892674;29;20099;-90
2021/01/29 06:39:59;;;;;;;0.10;0.10;;;11.70;99.90;;;;;;4857981;29;20435;-91
2021/01/29 06:42:43;;;;;;;0.10;0.10;;;11.80;99.90;;;;;;4880405;29;20033;-91
2021/01/29 06:45:21;;;;;;;0.20;0.20;;;11.80;99.90;;;;;;4892587;29;20047;-90
2021/01/29 06:48:20;;;;;;;0.68;0.68;;;11.60;99.90;;;;;;4892413;29;20039;-90
2021/01/29 06:51:29;;;;;;;0.10;0.10;;;11.60;99.90;;;;;;4941600;28;20067;-89
2021/01/29 06:54:31;;;;;;;0.10;0.10;;;11.50;99.90;;;;;;4988273;28;20065;-90
2021/01/29 06:57:13;;;;;;;0.73;0.73;;;11.50;99.90;;;;;;4977064;28;20679;-90
2021/01/29 07:00:02;;;;;;;0.85;0.85;;;11.40;99.90;;;;;;5057648;28;20866;-90
2021/01/29 07:02:59;;;;;;;0.20;0.20;;;11.50;99.90;;;;;;5051936;28;20417;-90
2021/01/29 07:05:48;;;;;;;;;;;11.70;99.90;;;;;;5061800;28;20029;-89
2021/01/29 07:08:20;;;;;;;0.95;0.95;;;11.70;99.90;;;;;;5066649;28;20688;-90
2021/01/29 07:10:48;;;;;;;15.60;1.02;;;11.70;99.90;;;;;;5050946;28;20027;-90
2021/01/29 07:13:31;;;;;;;0.35;0.32;;;11.70;99.90;;;;;;5069129;28;20024;-90
2021/01/29 07:16:22;;;;;;;0.32;0.32;;;11.60;99.90;;;;;;5071381;28;20390;-90
2021/01/29 07:19:23;;;;;;;0.10;0.10;;;11.60;99.90;;;;;;5039939;28;20028;-89
2021/01/29 07:21:54;;;;;;;1.02;0.75;;;11.70;99.90;;;;;;5052533;28;20086;-89
2021/01/29 07:24:29;;;;;;;0.10;0.10;;;11.60;99.90;;;;;;5050548;28;20111;-90
2021/01/29 07:27:17;;;;;;;0.30;0.30;;;11.60;99.90;;;;;;5069129;28;20031;-89
2021/01/29 07:30:22;;;;;;;0.10;0.10;;;11.70;99.90;;;;;;5040637;28;20173;-89
2021/01/29 07:32:52;;;;;;;0.20;0.20;;;11.70;99.90;;;;;;5076118;28;20033;-89
2021/01/29 07:35:28;;;;;;;0.28;0.28;;;11.70;99.90;;;;;;5050681;28;20039;-89
2021/01/29 07:38:00;;;;;;;0.70;0.70;;;11.70;99.90;;;;;;5070036;28;20810;-90
2021/01/29 07:40:49;;;;;;;1.83;1.45;;;11.80;99.90;;;;;;5043290;28;20028;-89
2021/01/29 07:43:42;;;;;;;1.27;0.43;;;11.70;99.90;;;;;;5056578;28;20035;-90
2021/01/29 07:46:12;;;;;;;0.63;0.63;;;11.70;99.90;;;;;;5068386;28;20166;-90
2021/01/29 07:48:57;;;;;;;1.20;0.88;;;11.70;99.90;;;;;;5068630;28;20059;-90
2021/01/29 07:51:33;;;;;;;0.85;0.65;;;11.70;99.90;;;;;;5068449;28;20078;-89
2021/01/29 07:54:23;;;;;;;0.23;0.23;;;11.70;99.90;;;;;;5069060;28;20029;-90
2021/01/29 07:57:19;;;;;;;1.10;1.08;;;11.70;99.90;;;;;;5056374;28;20153;-90
2021/01/29 08:00:13;;;;;;;0.30;0.30;;;11.80;99.90;;;;;;5050721;28;20028;-90
2021/01/29 08:03:10;;;;;;;2.63;1.23;;;11.80;99.90;;;;;;5068892;28;20020;-90
2021/01/29 08:05:47;;;;;;;0.10;0.10;;;11.90;99.90;;;;;;5048676;28;20401;-90
2021/01/29 08:08:22;;;;;;;0.40;0.40;;;11.90;99.90;;;;;;5047963;28;20024;-90
2021/01/29 08:10:52;;;;;;;1.10;1.00;;;11.80;99.90;;;;;;5068672;28;20040;-90
2021/01/29 08:13:59;;;;;;;0.65;0.65;;;11.80;99.90;;;;;;5050480;28;20020;-90
2021/01/29 08:16:57;;;;;;;0.30;0.30;;;11.80;99.90;;;;;;5050249;28;20032;-89
2021/01/29 08:19:33;;;;;;;0.10;0.10;;;11.90;99.90;;;;;;5068165;28;20823;-89
2021/01/29 08:21:58;;;;;;;0.10;0.10;;;11.90;99.90;;;;;;5069008;28;20035;-90
2021/01/29 08:24:24;;;;;;;0.32;0.32;;;11.90;99.90;;;;;;5068523;28;20029;-90
2021/01/29 08:27:02;;;;;;;0.40;0.40;;;11.90;99.90;;;;;;5068702;28;20394;-90
2021/01/29 08:30:06;;;;;;;1.40;1.33;;;11.90;99.90;;;;;;5068066;28;20020;-90
2021/01/29 08:32:52;;;;;;;0.10;0.10;;;11.80;99.90;;;;;;5050270;28;20032;-89
2021/01/29 08:35:45;;;;;;;1.92;1.35;;;11.80;99.90;;;;;;5050442;28;20028;-90
2021/01/29 08:38:35;;;;;;;1.08;1.00;;;12.00;99.90;;;;;;5068403;28;20028;-90
2021/01/29 08:41:19;;;;;;;0.68;0.63;;;12.50;99.90;;;;;;5068535;28;20382;-90
2021/01/29 08:44:03;;;;;;;0.20;0.20;;;12.80;99.90;;;;;;5050402;28;20620;-89
2021/01/29 08:46:53;;;;;;;0.20;0.20;;;12.60;99.90;;;;;;5050307;28;20019;-90
2021/01/29 08:49:50;;;;;;;0.10;0.10;;;12.60;99.90;;;;;;5066869;28;20067;-91
2021/01/29 08:52:37;;;;;;;0.70;0.70;;;12.60;99.90;;;;;;5060328;28;20099;-90
2021/01/29 08:55:24;;;;;;;0.90;0.90;;;12.60;99.90;;;;;;5054854;28;20036;-90
2021/01/29 08:57:59;;;;;;;0.38;0.38;;;12.50;99.90;;;;;;5068081;28;20020;-90
2021/01/29 09:00:30;;;;;;;0.15;0.15;;;12.30;99.90;;;;;;5071051;28;20685;-90
2021/01/29 09:03:21;;;;;;;0.10;0.10;;;12.10;99.90;;;;;;5054184;28;20451;-90
2021/01/29 09:05:49;;;;;;;4.03;2.20;;;12.30;99.90;;;;;;5071785;28;20849;-90
2021/01/29 09:08:19;;;;;;;27.95;0.65;;;12.50;99.90;;;;;;5054068;28;20016;-90
2021/01/29 09:10:48;;;;;;;2.60;1.63;;;12.60;99.90;;;;;;5071636;28;20036;-90
2021/01/29 09:13:20;;;;;;;0.88;0.75;;;12.60;99.90;;;;;;5071974;28;20039;-89
2021/01/29 09:16:27;;;;;;;2.53;2.00;;;12.80;99.90;;;;;;5053822;28;20056;-90
2021/01/29 09:18:59;;;;;;;0.57;0.57;;;12.70;99.90;;;;;;5040872;28;20029;-90
2021/01/29 09:22:06;;;;;;;0.10;0.10;;;12.30;99.90;;;;;;5053738;28;20063;-90
2021/01/29 09:24:55;;;;;;;1.55;1.45;;;12.20;99.90;;;;;;5078652;28;20502;-90
2021/01/29 09:27:51;;;;;;;0.17;0.17;;;12.50;99.90;;;;;;5050801;28;20082;-90
2021/01/29 09:30:23;;;;;;;0.10;0.10;;;12.90;99.90;;;;;;5065152;28;20021;-90
2021/01/29 09:32:51;;;;;;;12.60;2.45;;;12.80;99.90;;;;;;5057618;28;20505;-89
2021/01/29 09:35:48;;;;;;;0.13;0.13;;;12.90;99.90;;;;;;5071642;28;20150;-90
2021/01/29 09:38:18;;;;;;;0.38;0.38;;;12.70;99.90;;;;;;5060390;28;20576;-90
2021/01/29 09:40:52;;;;;;;0.10;0.10;;;12.60;99.90;;;;;;5071327;28;20020;-90
2021/01/29 09:43:46;;;;;;;1.50;1.00;;;12.90;99.90;;;;;;5053647;28;20040;-90
2021/01/29 09:46:19;;;;;;;0.25;0.25;;;15.00;99.90;;;;;;5070889;28;20229;-90
2021/01/29 09:48:48;;;;;;;0.75;0.75;;;14.40;99.90;;;;;;5071281;28;20056;-90
2021/01/29 09:51:39;;;;;;;8.32;0.55;;;14.30;99.90;;;;;;5069035;28;20062;-90
2021/01/29 09:54:15;;;;;;;1.25;0.85;;;13.60;99.90;;;;;;5071395;28;20028;-90
2021/01/29 09:56:45;;;;;;;0.95;0.65;;;14.50;99.90;;;;;;5071004;28;20028;-89
2021/01/29 09:59:30;;;;;;;0.25;0.25;;;13.40;99.90;;;;;;5071159;28;20371;-89
2021/01/29 10:02:05;;;;;;;0.10;0.10;;;13.00;99.90;;;;;;5058707;28;20021;-91
2021/01/29 10:04:50;;;;;;;3.30;0.68;;;12.40;99.90;;;;;;5070698;28;20024;-90
2021/01/29 10:07:18;;;;;;;0.40;0.40;;;12.40;99.90;;;;;;5047242;28;20032;-91
2021/01/29 10:10:05;;;;;;;0.38;0.38;;;12.10;99.90;;;;;;5070056;28;20490;-91
2021/01/29 10:12:34;;;;;;;0.15;0.15;;;12.40;99.90;;;;;;5053100;28;20481;-90
2021/01/29 10:15:15;;;;;;;0.30;0.30;;;12.50;99.90;;;;;;5070533;28;20032;-89
2021/01/29 10:17:45;;;;;;;0.20;0.20;;;13.30;99.90;;;;;;5071084;28;20043;-90
2021/01/29 10:20:33;;;;;;;0.32;0.32;;;14.70;99.90;;;;;;5070721;28;20493;-90
2021/01/29 10:23:17;;;;;;;0.08;0.08;;;14.30;99.90;;;;;;5072791;28;20082;-91
2021/01/29 10:26:16;;;;;;;0.65;0.55;;;14.40;99.90;;;;;;5062312;28;20497;-92
2021/01/29 10:29:02;;;;;;;18.42;1.42;;;15.10;99.90;;;;;;5064965;28;20505;-92
2021/01/29 10:31:30;;;;;;;0.67;0.67;;;13.70;99.90;;;;;;5063770;28;20031;-92
2021/01/29 10:34:21;;;;;;;0.32;0.32;;;13.60;99.90;;;;;;5052927;28;20267;-91
2021/01/29 10:36:49;;;;;;;3.25;1.38;;;12.70;99.90;;;;;;5077492;28;20438;-92
2021/01/29 10:39:19;;;;;;;0.43;0.43;;;13.00;99.90;;;;;;5057377;28;20032;-92
2021/01/29 10:41:56;;;;;;;5.38;1.20;;;12.30;99.90;;;;;;5044128;28;20025;-92
2021/01/29 10:44:26;;;;;;;;;;;13.00;99.90;;;;;;5068120;28;20047;-91
2021/01/29 10:47:14;;;;;;;0.10;0.10;;;13.50;99.90;;;;;;5043818;28;19915;-91
2021/01/29 10:50:06;;;;;;;0.20;0.20;;;13.30;99.90;;;;;;5053986;28;20711;-91
2021/01/29 10:52:59;;;;;;;1.23;1.10;;;12.90;99.90;;;;;;5077374;28;20031;-91
2021/01/29 10:55:53;;;;;;;2.60;1.65;;;12.70;99.90;;;;;;5040087;28;20108;-93
2021/01/29 10:58:59;;;;;;;1.00;0.95;;;13.20;99.90;;;;;;5046630;28;20032;-91
2021/01/29 11:01:35;;;;;;;0.45;0.45;;;13.30;19.60;;;;;;4952663;28;20473;-91
2021/01/29 11:04:22;;;;;;;0.50;0.50;;;12.50;1.00;;;;;;4952696;28;20035;-91
2021/01/29 11:07:04;;;;;;;0.30;0.30;;;13.00;1.00;;;;;;4953016;28;20524;-92
2021/01/29 11:09:43;;;;;;;0.40;0.40;;;12.90;1.00;;;;;;4952105;28;20046;-91
2021/01/29 11:12:27;;;;;;;0.25;0.25;;;12.60;1.00;;;;;;4948778;28;20145;-92
2021/01/29 11:15:01;;;;;;;0.15;0.15;;;12.60;99.90;;;;;;4965443;28;20038;-91
2021/01/29 11:17:48;;;;;;;0.55;0.55;;;12.20;99.90;;;;;;4953687;28;20067;-92
2021/01/29 11:20:27;;;;;;;1.95;1.20;;;12.20;99.90;;;;;;4968306;28;20516;-89
2021/01/29 11:23:06;;;;;;;0.10;0.10;;;12.50;99.90;;;;;;4967543;28;20081;-91
2021/01/29 11:25:58;;;;;;;1.40;1.30;;;12.70;99.90;;;;;;4950904;28;20354;-93
2021/01/29 11:28:38;;;;;;;0.35;0.35;;;12.80;99.90;;;;;;4945793;28;20582;-93
2021/01/29 11:31:08;;;;;;;3.70;1.08;;;12.50;99.90;;;;;;4954035;28;20058;-93
2021/01/29 11:33:37;;;;;;;1.55;0.47;;;12.50;99.90;;;;;;4951973;28;20027;-92
2021/01/29 11:36:17;;;;;;;0.25;0.25;;;12.30;99.90;;;;;;5013625;28;20041;-92
2021/01/29 11:39:12;;;;;;;0.57;0.57;;;12.50;99.90;;;;;;5052311;28;20094;-92
2021/01/29 11:41:56;;;;;;;0.77;0.45;;;12.70;99.90;;;;;;5040859;28;20027;-91
2021/01/29 11:44:48;;;;;;;0.90;0.63;;;13.00;99.90;;;;;;5052205;28;20020;-91
2021/01/29 11:47:30;;;;;;;1.35;1.08;;;12.60;99.90;;;;;;5038038;28;20059;-91
2021/01/29 11:50:28;;;;;;;3.92;1.23;;;12.70;99.90;;;;;;5051494;28;20048;-91
2021/01/29 11:53:08;;;;;;;27.00;1.35;;;13.00;99.90;;;;;;5039524;28;20063;-91
2021/01/29 11:55:40;;;;;;;0.55;0.55;;;13.80;99.90;;;;;;5051013;28;20128;-91
2021/01/29 11:58:09;;;;;;;1.85;1.73;;;13.70;99.90;;;;;;5051035;28;20033;-91
2021/01/29 12:01:00;;;;;;;2.22;1.23;;;13.20;99.90;;;;;;5050677;28;20016;-91
2021/01/29 12:03:43;;;;;;;0.75;0.73;;;12.70;99.90;;;;;;5040484;28;20028;-91
2021/01/29 12:06:16;;;;;;;1.02;0.52;;;12.70;99.90;;;;;;5069121;28;20024;-91
2021/01/29 12:09:05;;;;;;;0.52;0.52;;;12.70;99.90;;;;;;5068184;28;20032;-92
2021/01/29 12:11:48;;;;;;;2.92;1.27;;;12.60;99.90;;;;;;5050486;28;20154;-92
2021/01/29 12:14:40;;;;;;;21.55;2.83;;;12.50;99.90;;;;;;5068867;28;20028;-91
2021/01/29 12:17:08;;;;;;;0.98;0.98;;;12.30;99.90;;;;;;5050068;28;20048;-90
2021/01/29 12:19:42;;;;;;;0.52;0.52;;;12.50;99.90;;;;;;5044333;28;20051;-91
2021/01/29 12:22:14;;;;;;;1.27;0.65;;;13.20;99.90;;;;;;5049958;28;20043;-92
2021/01/29 12:24:44;;;;;;;0.88;0.63;;;12.80;99.90;;;;;;5055958;28;20512;-91
2021/01/29 12:27:21;;;;;;;10.73;1.55;;;12.40;99.90;;;;;;5037118;28;20463;-90
2021/01/29 12:30:09;;;;;;;4.85;2.10;;;12.20;99.90;;;;;;5047834;28;20020;-91
2021/01/29 12:32:50;;;;;;;0.60;0.60;;;12.00;99.90;;;;;;5048866;28;20028;-90
2021/01/29 12:35:43;;;;;;;7.20;1.27;;;12.00;99.90;;;;;;5050679;28;20029;-92
2021/01/29 12:38:21;;;;;;;5.45;3.08;;;12.40;99.90;;;;;;5058209;28;20017;-92
2021/01/29 12:41:39;;;;;;;1.63;1.02;;;12.80;99.90;;;;;;5041689;28;20029;-92
2021/01/29 12:44:17;;;;;;;2.75;2.47;;;13.00;99.90;;;;;;5039788;28;20201;-92
2021/01/29 12:46:52;;;;;;;2.30;1.73;;;12.70;99.90;;;;;;5064423;28;20085;-92
2021/01/29 12:49:28;;;;;;;3.10;1.75;;;12.60;99.90;;;;;;5064602;28;20044;-92
2021/01/29 12:52:18;;;;;;;0.47;0.47;;;12.60;99.90;;;;;;5043306;28;20048;-91
2021/01/29 12:54:58;;;;;;;0.30;0.30;;;12.70;99.90;;;;;;5044785;28;20485;-92
2021/01/29 12:57:30;;;;;;;0.20;0.20;;;12.70;99.90;;;;;;5048373;28;20021;-92
2021/01/29 13:00:15;;;;;;;0.50;0.50;;;12.90;99.90;;;;;;5053766;28;20123;-92
2021/01/29 13:02:46;;;;;;;0.10;0.10;;;13.20;99.90;;;;;;5040766;28;20074;-92
2021/01/29 13:05:22;;;;;;;2.08;0.90;;;13.20;99.90;;;;;;5066659;28;20046;-92
2021/01/29 13:08:20;;;;;;;0.88;0.88;;;13.30;99.90;;;;;;5054822;28;20025;-92
2021/01/29 13:10:54;;;;;;;0.10;0.10;;;12.90;99.90;;;;;;5052697;28;20408;-92
2021/01/29 13:13:52;;;;;;;0.80;0.80;;;12.70;99.90;;;;;;5072207;28;20024;-91
2021/01/29 13:16:47;;;;;;;0.10;0.10;;;12.60;99.90;;;;;;5052527;28;20036;-91
2021/01/29 13:19:38;;;;;;;0.30;0.30;;;12.70;99.90;;;;;;4981621;28;20209;-92
2021/01/29 13:22:18;;;;;;;3.20;0.65;;;12.60;99.90;;;;;;5009320;28;20026;-92
2021/01/29 13:25:08;;;;;;;0.50;0.50;;;12.60;99.90;;;;;;4993083;28;20056;-91
2021/01/29 13:27:41;;;;;;;0.22;0.22;;;12.50;99.90;;;;;;4985763;28;20033;-90
2021/01/29 13:30:20;;;;;;;0.82;0.82;;;12.20;99.90;;;;;;4981708;28;20106;-90
2021/01/29 13:32:47;;;;;;;0.38;0.38;;;12.20;99.90;;;;;;5008883;28;20089;-91
2021/01/29 13:35:19;;;;;;;0.30;0.30;;;12.10;99.90;;;;;;4997534;28;20030;-91
2021/01/29 13:37:46;;;;;;;1.45;1.17;;;12.30;99.90;;;;;;5006008;28;20018;-91
2021/01/29 13:40:14;;;;;;;0.13;0.13;;;12.30;99.90;;;;;;5009177;28;20038;-91
2021/01/29 13:42:42;;;;;;;1.35;1.17;;;12.40;99.90;;;;;;5003932;28;20063;-91
2021/01/29 13:45:09;;;;;;;0.52;0.52;;;12.40;99.90;;;;;;5007002;28;20068;-91
2021/01/29 13:47:39;;;;;;;0.55;0.55;;;12.60;99.90;;;;;;5008046;28;20022;-92
2021/01/29 13:50:16;;;;;;;5.97;1.02;;;12.80;99.90;;;;;;4987277;28;20054;-92
2021/01/29 13:52:57;;;;;;;1.65;0.55;;;13.20;99.90;;;;;;5003959;28;20065;-92
2021/01/29 13:55:32;;;;;;;0.40;0.40;;;13.10;99.90;;;;;;5024982;28;20131;-92
2021/01/29 13:58:02;;;;;;;9.30;2.47;;;13.00;99.90;;;;;;5050328;28;20493;-92